createdAt,value
2018-08-12T00:02:08.616Z,96074.00
2018-08-12T00:04:38.847Z,96072.00
2018-08-12T00:07:09.016Z,96074.00
2018-08-12T00:09:39.268Z,96074.00
2018-08-12T00:12:09.540Z,96066.00
2018-08-12T00:14:39.953Z,96064.00
2018-08-12T00:17:10.477Z,96060.00
2018-08-12T00:19:40.804Z,96062.00
2018-08-12T00:22:11.076Z,96061.00
2018-08-12T00:24:41.349Z,96057.00
2018-08-12T00:27:11.466Z,96056.00
2018-08-12T00:29:41.624Z,96052.00
2018-08-12T00:32:12.077Z,96052.00
2018-08-12T00:34:42.412Z,96052.00
2018-08-12T00:37:12.610Z,96045.00
2018-08-12T00:39:42.812Z,96042.00
2018-08-12T00:42:13.056Z,96040.00
2018-08-12T00:44:43.250Z,96040.00
2018-08-12T00:47:13.458Z,96040.00
2018-08-12T00:49:43.869Z,96039.00
2018-08-12T00:52:14.289Z,96034.00
2018-08-12T00:54:44.568Z,96035.00
2018-08-12T00:57:14.741Z,96036.00
2018-08-12T00:59:44.920Z,96034.00
2018-08-12T01:02:15.126Z,96035.00
2018-08-12T01:04:45.220Z,96038.00
2018-08-12T01:07:15.819Z,96031.00
2018-08-12T01:09:46.082Z,96028.00
2018-08-12T01:12:16.333Z,96023.00
2018-08-12T01:14:46.514Z,96020.00
2018-08-12T01:17:16.704Z,96023.00
2018-08-12T01:19:46.924Z,96022.00
2018-08-12T01:22:17.279Z,96022.00
2018-08-12T01:24:47.445Z,96019.00
2018-08-12T01:27:18.656Z,96025.00
2018-08-12T01:29:48.772Z,96019.00
2018-08-12T01:32:18.961Z,96018.00
2018-08-12T01:34:49.068Z,96021.00
2018-08-12T01:37:19.297Z,96018.00
2018-08-12T01:39:49.608Z,96020.00
2018-08-12T01:42:20.067Z,96021.00
2018-08-12T01:44:50.403Z,96024.00
2018-08-12T01:47:20.736Z,96021.00
2018-08-12T01:49:51.170Z,96022.00
2018-08-12T01:52:21.607Z,96018.00
2018-08-12T01:54:51.935Z,96018.00
2018-08-12T01:57:22.181Z,96016.00
2018-08-12T01:59:52.712Z,96008.00
2018-08-12T02:02:23.378Z,96004.00
2018-08-12T02:04:53.807Z,96006.00
2018-08-12T02:10:20.376Z,96007.00
2018-08-12T02:12:50.548Z,96001.00
2018-08-12T02:15:20.796Z,96009.00
2018-08-12T02:17:51.150Z,96008.00
2018-08-12T02:20:21.380Z,96015.00
2018-08-12T02:22:51.700Z,96006.00
2018-08-12T02:25:22.011Z,96003.00
2018-08-12T02:27:52.182Z,95998.00
2018-08-12T02:30:22.400Z,95999.00
2018-08-12T02:32:52.653Z,95999.00
2018-08-12T02:35:22.802Z,95993.00
2018-08-12T02:37:53.051Z,95994.00
2018-08-12T02:40:23.885Z,95996.00
2018-08-12T02:42:54.193Z,95988.00
2018-08-12T02:45:26.127Z,95984.00
2018-08-12T02:47:56.454Z,95984.00
2018-08-12T02:50:26.953Z,95982.00
2018-08-12T02:52:57.052Z,95979.00
2018-08-12T02:55:27.751Z,95978.00
2018-08-12T02:57:58.102Z,95976.00
2018-08-12T03:00:28.424Z,95970.00
2018-08-12T03:02:58.628Z,95971.00
2018-08-12T03:05:31.293Z,95965.00
2018-08-12T03:08:03.032Z,95961.00
2018-08-12T03:10:33.713Z,95959.00
2018-08-12T03:13:05.366Z,95961.00
2018-08-12T03:15:36.042Z,95963.00
2018-08-12T03:18:07.009Z,95958.00
2018-08-12T03:20:37.685Z,95956.00
2018-08-12T03:23:09.500Z,95951.00
2018-08-12T03:25:40.352Z,95953.00
2018-08-12T03:28:11.807Z,95951.00
2018-08-12T03:30:42.048Z,95949.00
2018-08-12T03:33:12.671Z,95953.00
2018-08-12T03:35:43.193Z,95948.00
2018-08-12T03:38:13.351Z,95943.00
2018-08-12T03:40:43.687Z,95947.00
2018-08-12T03:43:13.939Z,95943.00
2018-08-12T03:45:44.199Z,95944.00
2018-08-12T03:48:14.565Z,95941.00
2018-08-12T03:50:44.949Z,95938.00
2018-08-12T03:53:15.108Z,95935.00
2018-08-12T03:55:45.293Z,95931.00
2018-08-12T03:58:15.399Z,95931.00
2018-08-12T04:00:45.592Z,95927.00
2018-08-12T04:03:15.929Z,95926.00
2018-08-12T04:05:46.077Z,95926.00
2018-08-12T04:08:16.219Z,95924.00
2018-08-12T04:10:46.375Z,95924.00
2018-08-12T04:13:16.637Z,95926.00
2018-08-12T04:15:46.923Z,95916.00
2018-08-12T04:18:17.036Z,95921.00
2018-08-12T04:20:47.232Z,95923.00
2018-08-12T04:23:17.512Z,95923.00
2018-08-12T04:25:47.833Z,95922.00
2018-08-12T04:28:18.264Z,95923.00
2018-08-12T04:30:48.516Z,95925.00
2018-08-12T04:33:18.587Z,95925.00
2018-08-12T04:35:48.863Z,95922.00
2018-08-12T04:38:18.936Z,95920.00
2018-08-12T04:40:49.260Z,95920.00
2018-08-12T04:43:19.275Z,95921.00
2018-08-12T04:45:49.468Z,95922.00
2018-08-12T04:48:19.691Z,95924.00
2018-08-12T04:50:49.983Z,95922.00
2018-08-12T04:53:20.716Z,95918.00
2018-08-12T04:55:50.896Z,95919.00
2018-08-12T04:58:21.057Z,95920.00
2018-08-12T05:00:51.323Z,95919.00
2018-08-12T05:03:22.184Z,95922.00
2018-08-12T05:05:55.091Z,95915.00
2018-08-12T05:08:25.302Z,95908.00
2018-08-12T05:10:55.483Z,95908.00
2018-08-12T05:13:25.919Z,95911.00
2018-08-12T05:15:56.184Z,95909.00
2018-08-12T05:18:26.884Z,95912.00
2018-08-12T05:20:56.939Z,95918.00
2018-08-12T05:23:27.109Z,95911.00
2018-08-12T05:25:57.413Z,95910.00
2018-08-12T05:28:27.531Z,95907.00
2018-08-12T05:30:57.809Z,95899.00
2018-08-12T05:33:28.311Z,95905.00
2018-08-12T05:35:58.591Z,95909.00
2018-08-12T05:38:28.851Z,95899.00
2018-08-12T05:40:59.258Z,95892.00
2018-08-12T05:43:29.507Z,95891.00
2018-08-12T05:45:59.711Z,95893.00
2018-08-12T05:48:29.946Z,95884.00
2018-08-12T05:51:00.250Z,95882.00
2018-08-12T05:53:30.482Z,95883.00
2018-08-12T05:56:01.188Z,95882.00
2018-08-12T05:58:31.563Z,95874.00
2018-08-12T06:01:02.044Z,95874.00
2018-08-12T06:03:32.362Z,95873.00
2018-08-12T06:06:02.832Z,95871.00
2018-08-12T06:08:33.132Z,95866.00
2018-08-12T06:11:03.720Z,95865.00
2018-08-12T06:13:33.975Z,95864.00
2018-08-12T06:16:04.774Z,95862.00
2018-08-12T06:18:34.920Z,95862.00
2018-08-12T06:21:05.213Z,95853.00
2018-08-12T06:23:35.341Z,95854.00
2018-08-12T06:26:05.517Z,95849.00
2018-08-12T06:28:35.774Z,95847.00
2018-08-12T06:31:05.933Z,95840.00
2018-08-12T06:33:36.081Z,95849.00
2018-08-12T06:36:06.232Z,95843.00
2018-08-12T06:38:36.587Z,95844.00
2018-08-12T06:41:06.696Z,95845.00
2018-08-12T06:43:36.853Z,95844.00
2018-08-12T06:46:07.631Z,95839.00
2018-08-12T06:48:38.502Z,95841.00
2018-08-12T06:51:08.648Z,95844.00
2018-08-12T06:53:39.872Z,95831.00
2018-08-12T06:56:10.061Z,95833.00
2018-08-12T06:58:40.821Z,95830.00
2018-08-12T07:01:10.952Z,95830.00
2018-08-12T07:03:41.911Z,95834.00
2018-08-12T07:06:12.283Z,95831.00
2018-08-12T07:08:45.379Z,95831.00
2018-08-12T07:11:15.980Z,95833.00
2018-08-12T07:13:46.431Z,95824.00
2018-08-12T07:16:16.881Z,95822.00
2018-08-12T07:18:47.368Z,95816.00
2018-08-12T07:21:19.100Z,95813.00
2018-08-12T07:23:50.225Z,95808.00
2018-08-12T07:26:21.722Z,95803.00
2018-08-12T07:28:53.135Z,95808.00
2018-08-12T07:31:25.039Z,95805.00
2018-08-12T07:33:55.336Z,95805.00
2018-08-12T07:36:25.508Z,95796.00
2018-08-12T07:38:55.896Z,95791.00
2018-08-12T07:41:26.433Z,95791.00
2018-08-12T07:44:00.280Z,95795.00
2018-08-12T07:46:31.576Z,95790.00
2018-08-12T07:49:01.741Z,95789.00
2018-08-12T07:51:32.186Z,95792.00
2018-08-12T07:54:04.062Z,95791.00
2018-08-12T07:56:34.790Z,95782.00
2018-08-12T07:59:05.532Z,95781.00
2018-08-12T08:01:35.912Z,95779.00
2018-08-12T08:04:07.110Z,95773.00
2018-08-12T08:06:37.392Z,95773.00
2018-08-12T08:09:13.139Z,95772.00
2018-08-12T08:11:43.952Z,95771.00
2018-08-12T08:14:14.152Z,95777.00
2018-08-12T08:16:44.657Z,95765.00
2018-08-12T08:19:14.867Z,95769.00
2018-08-12T08:21:45.098Z,95767.00
2018-08-12T08:24:15.727Z,95761.00
2018-08-12T08:26:46.262Z,95761.00
2018-08-12T08:29:17.188Z,95758.00
2018-08-12T08:31:48.071Z,95758.00
2018-08-12T08:34:18.316Z,95756.00
2018-08-12T08:36:48.499Z,95760.00
2018-08-12T08:39:18.758Z,95766.00
2018-08-12T08:41:50.052Z,95758.00
2018-08-12T08:44:21.424Z,95756.00
2018-08-12T08:46:56.526Z,95756.00
2018-08-12T08:49:31.057Z,95753.00
2018-08-12T08:52:08.972Z,95756.00
2018-08-12T08:54:40.003Z,95753.00
2018-08-12T08:57:12.319Z,95754.00
2018-08-12T08:59:42.681Z,95753.00
2018-08-12T09:02:15.190Z,95742.00
2018-08-12T09:04:45.552Z,95750.00
2018-08-12T09:07:15.661Z,95743.00
2018-08-12T09:09:45.946Z,95747.00
2018-08-12T09:12:16.514Z,95747.00
2018-08-12T09:14:47.099Z,95742.00
2018-08-12T09:17:18.284Z,95742.00
2018-08-12T09:19:50.407Z,95738.00
2018-08-12T09:22:21.216Z,95734.00
2018-08-12T09:24:52.045Z,95741.00
2018-08-12T09:27:22.907Z,95729.00
2018-08-12T09:29:55.198Z,95721.00
2018-08-12T09:32:25.694Z,95734.00
2018-08-12T09:34:56.215Z,95733.00
2018-08-12T09:37:26.812Z,95728.00
2018-08-12T09:39:57.112Z,95723.00
2018-08-12T09:42:27.229Z,95733.00
2018-08-12T09:44:57.717Z,95723.00
2018-08-12T09:47:28.012Z,95729.00
2018-08-12T09:49:58.204Z,95721.00
2018-08-12T09:52:29.071Z,95716.00
2018-08-12T09:54:59.524Z,95721.00
2018-08-12T09:57:30.355Z,95723.00
2018-08-12T10:00:01.216Z,95720.00
2018-08-12T10:02:31.658Z,95721.00
2018-08-12T10:05:01.864Z,95716.00
2018-08-12T10:07:32.258Z,95715.00
2018-08-12T10:10:02.556Z,95712.00
2018-08-12T10:12:32.996Z,95702.00
2018-08-12T10:15:03.612Z,95695.00
2018-08-12T10:17:34.607Z,95685.00
2018-08-12T10:20:06.935Z,95679.00
2018-08-12T10:22:37.333Z,95681.00
2018-08-12T10:25:09.272Z,95680.00
2018-08-12T10:27:41.118Z,95678.00
2018-08-12T10:30:13.904Z,95666.00
2018-08-12T10:32:44.332Z,95672.00
2018-08-12T10:35:16.240Z,95671.00
2018-08-12T10:37:47.091Z,95670.00
2018-08-12T10:40:21.016Z,95665.00
2018-08-12T10:42:54.661Z,95657.00
2018-08-12T10:45:30.165Z,95660.00
2018-08-12T10:48:02.530Z,95648.00
2018-08-12T10:50:35.676Z,95647.00
2018-08-12T10:53:07.968Z,95649.00
2018-08-12T10:55:42.817Z,95645.00
2018-08-12T10:58:18.317Z,95651.00
2018-08-12T11:00:54.846Z,95648.00
2018-08-12T11:03:30.340Z,95648.00
2018-08-12T11:06:03.497Z,95642.00
2018-08-12T11:08:35.535Z,95637.00
2018-08-12T11:11:06.649Z,95628.00
2018-08-12T11:13:37.364Z,95633.00
2018-08-12T11:16:07.608Z,95637.00
2018-08-12T11:18:38.013Z,95630.00
2018-08-12T11:21:08.208Z,95628.00
2018-08-12T11:23:38.427Z,95622.00
2018-08-12T11:26:08.685Z,95623.00
2018-08-12T11:28:39.084Z,95625.00
2018-08-12T11:31:09.275Z,95611.00
2018-08-12T11:33:40.037Z,95614.00
2018-08-12T11:36:10.404Z,95605.00
2018-08-12T11:38:40.632Z,95605.00
2018-08-12T11:41:11.122Z,95604.00
2018-08-12T11:43:42.430Z,95603.00
2018-08-12T11:46:12.935Z,95598.00
2018-08-12T11:48:45.903Z,95589.00
2018-08-12T11:51:17.374Z,95583.00
2018-08-12T11:53:47.905Z,95578.00
2018-08-12T11:56:18.779Z,95576.00
2018-08-12T11:58:49.116Z,95575.00
2018-08-12T12:01:22.542Z,95567.00
2018-08-12T12:03:53.438Z,95558.00
2018-08-12T12:06:23.619Z,95561.00
2018-08-12T12:08:55.129Z,95556.00
2018-08-12T12:11:25.351Z,95555.00
2018-08-12T12:13:55.639Z,95547.00
2018-08-12T12:16:26.064Z,95554.00
2018-08-12T12:18:56.210Z,95539.00
2018-08-12T12:21:26.465Z,95545.00
2018-08-12T12:23:56.692Z,95539.00
2018-08-12T12:26:26.912Z,95539.00
2018-08-12T12:28:57.128Z,95537.00
2018-08-12T12:31:27.539Z,95535.00
2018-08-12T12:33:57.824Z,95529.00
2018-08-12T12:36:28.843Z,95521.00
2018-08-12T12:38:59.191Z,95525.00
2018-08-12T12:41:29.483Z,95517.00
2018-08-12T12:43:59.790Z,95520.00
2018-08-12T12:46:30.197Z,95525.00
2018-08-12T12:49:00.540Z,95524.00
2018-08-12T12:51:30.880Z,95519.00
2018-08-12T12:54:01.609Z,95519.00
2018-08-12T12:56:32.131Z,95512.00
2018-08-12T12:59:02.424Z,95509.00
2018-08-12T13:01:32.896Z,95510.00
2018-08-12T13:04:04.666Z,95512.00
2018-08-12T13:06:35.596Z,95501.00
2018-08-12T13:09:09.367Z,95503.00
2018-08-12T13:11:39.422Z,95502.00
2018-08-12T13:14:12.602Z,95496.00
2018-08-12T13:16:43.134Z,95494.00
2018-08-12T13:19:13.560Z,95478.00
2018-08-12T13:21:43.818Z,95485.00
2018-08-12T13:24:13.975Z,95482.00
2018-08-12T13:26:44.840Z,95478.00
2018-08-12T13:29:15.116Z,95481.00
2018-08-12T13:31:45.564Z,95474.00
2018-08-12T13:34:15.760Z,95468.00
2018-08-12T13:36:51.854Z,95460.00
2018-08-12T13:39:22.452Z,95458.00
2018-08-12T13:41:52.613Z,95454.00
2018-08-12T13:44:22.922Z,95457.00
2018-08-12T13:46:53.207Z,95446.00
2018-08-12T13:49:23.647Z,95444.00
2018-08-12T13:51:54.477Z,95446.00
2018-08-12T13:54:25.065Z,95446.00
2018-08-12T13:56:55.329Z,95437.00
2018-08-12T13:59:25.684Z,95434.00
2018-08-12T14:02:00.978Z,95429.00
2018-08-12T14:04:32.079Z,95428.00
2018-08-12T14:07:03.317Z,95423.00
2018-08-12T14:09:33.573Z,95414.00
2018-08-12T14:12:04.759Z,95415.00
2018-08-12T14:14:34.938Z,95402.00
2018-08-12T14:17:05.149Z,95399.00
2018-08-12T14:19:35.696Z,95394.00
2018-08-12T14:22:06.296Z,95376.00
2018-08-12T14:24:36.504Z,95383.00
2018-08-12T14:27:06.755Z,95382.00
2018-08-12T14:29:36.977Z,95375.00
2018-08-12T14:32:07.261Z,95370.00
2018-08-12T14:34:37.931Z,95379.00
2018-08-12T14:37:08.224Z,95376.00
2018-08-12T14:39:38.661Z,95370.00
2018-08-12T14:42:09.154Z,95368.00
2018-08-12T14:44:39.685Z,95364.00
2018-08-12T14:47:10.201Z,95359.00
2018-08-12T14:49:40.288Z,95358.00
2018-08-12T14:52:10.602Z,95362.00
2018-08-12T14:54:40.767Z,95364.00
2018-08-12T14:57:11.049Z,95362.00
2018-08-12T14:59:41.250Z,95358.00
2018-08-12T15:02:11.370Z,95348.00
2018-08-12T15:04:41.536Z,95346.00
2018-08-12T15:07:11.822Z,95348.00
2018-08-12T15:09:42.065Z,95348.00
2018-08-12T15:12:12.328Z,95343.00
2018-08-12T15:14:42.821Z,95335.00
2018-08-12T15:17:13.076Z,95332.00
2018-08-12T15:19:43.719Z,95330.00
2018-08-12T15:22:14.490Z,95326.00
2018-08-12T15:24:44.705Z,95327.00
2018-08-12T15:27:14.995Z,95321.00
2018-08-12T15:29:45.247Z,95317.00
2018-08-12T15:32:15.612Z,95307.00
2018-08-12T15:34:46.126Z,95314.00
2018-08-12T15:37:16.295Z,95311.00
2018-08-12T15:39:46.956Z,95307.00
2018-08-12T15:42:17.155Z,95306.00
2018-08-12T15:44:47.728Z,95308.00
2018-08-12T15:47:17.883Z,95313.00
2018-08-12T15:49:48.209Z,95305.00
2018-08-12T15:52:18.334Z,95298.00
2018-08-12T15:54:48.575Z,95302.00
2018-08-12T15:57:18.788Z,95298.00
2018-08-12T15:59:49.007Z,95297.00
2018-08-12T16:02:19.320Z,95289.00
2018-08-12T16:04:49.653Z,95279.00
2018-08-12T16:07:19.859Z,95280.00
2018-08-12T16:09:50.088Z,95285.00
2018-08-12T16:12:20.384Z,95283.00
2018-08-12T16:14:50.684Z,95278.00
2018-08-12T16:17:20.997Z,95275.00
2018-08-12T16:19:51.416Z,95277.00
2018-08-12T16:22:22.470Z,95280.00
2018-08-12T16:24:52.896Z,95279.00
2018-08-12T16:27:23.333Z,95278.00
2018-08-12T16:29:53.741Z,95274.00
2018-08-12T16:32:24.156Z,95268.00
2018-08-12T16:34:54.461Z,95263.00
2018-08-12T16:37:24.641Z,95261.00
2018-08-12T16:39:55.020Z,95257.00
2018-08-12T16:42:25.849Z,95253.00
2018-08-12T16:44:56.249Z,95254.00
2018-08-12T16:47:26.557Z,95245.00
2018-08-12T16:49:57.217Z,95243.00
2018-08-12T16:52:28.177Z,95244.00
2018-08-12T16:54:58.661Z,95239.00
2018-08-12T16:57:28.972Z,95236.00
2018-08-12T16:59:59.230Z,95230.00
2018-08-12T17:02:30.345Z,95233.00
2018-08-12T17:05:00.664Z,95230.00
2018-08-12T17:07:30.998Z,95232.00
2018-08-12T17:10:01.897Z,95227.00
2018-08-12T17:12:33.027Z,95227.00
2018-08-12T17:15:04.267Z,95224.00
2018-08-12T17:17:34.619Z,95221.00
2018-08-12T17:20:06.033Z,95218.00
2018-08-12T17:22:36.435Z,95227.00
2018-08-12T17:25:07.731Z,95217.00
2018-08-12T17:27:38.780Z,95216.00
2018-08-12T17:30:13.237Z,95210.00
2018-08-12T17:32:44.147Z,95211.00
2018-08-12T17:35:14.595Z,95209.00
2018-08-12T17:37:45.748Z,95213.00
2018-08-12T17:40:16.684Z,95210.00
2018-08-12T17:42:46.972Z,95214.00
2018-08-12T17:45:17.202Z,95210.00
2018-08-12T17:47:47.708Z,95214.00
2018-08-12T17:50:18.768Z,95212.00
2018-08-12T17:52:48.957Z,95213.00
2018-08-12T17:55:20.529Z,95212.00
2018-08-12T17:57:50.760Z,95210.00
2018-08-12T18:00:21.017Z,95206.00
2018-08-12T18:02:51.260Z,95206.00
2018-08-12T18:05:24.040Z,95209.00
2018-08-12T18:07:54.889Z,95209.00
2018-08-12T18:10:27.080Z,95200.00
2018-08-12T18:12:57.916Z,95200.00
2018-08-12T18:15:28.635Z,95196.00
2018-08-12T18:17:58.893Z,95197.00
2018-08-12T18:20:31.445Z,95202.00
2018-08-12T18:23:03.383Z,95198.00
2018-08-12T18:25:33.861Z,95202.00
2018-08-12T18:28:06.276Z,95193.00
2018-08-12T18:30:36.505Z,95202.00
2018-08-12T18:33:08.932Z,95198.00
2018-08-12T18:35:39.242Z,95206.00
2018-08-12T18:38:10.904Z,95209.00
2018-08-12T18:40:41.487Z,95204.00
2018-08-12T18:43:13.296Z,95205.00
2018-08-12T18:45:43.524Z,95212.00
2018-08-12T18:48:13.992Z,95207.00
2018-08-12T18:50:44.335Z,95208.00
2018-08-12T18:53:15.008Z,95212.00
2018-08-12T18:55:45.508Z,95214.00
2018-08-12T18:58:15.662Z,95217.00
2018-08-12T19:00:45.879Z,95219.00
2018-08-12T19:03:16.091Z,95219.00
2018-08-12T19:05:46.491Z,95215.00
2018-08-12T19:08:17.159Z,95215.00
2018-08-12T19:10:51.741Z,95214.00
2018-08-12T19:13:23.065Z,95219.00
2018-08-12T19:15:56.051Z,95219.00
2018-08-12T19:18:26.515Z,95231.00
2018-08-12T19:20:57.169Z,95232.00
2018-08-12T19:23:27.534Z,95232.00
2018-08-12T19:25:58.108Z,95231.00
2018-08-12T19:28:29.936Z,95232.00
2018-08-12T19:31:00.701Z,95230.00
2018-08-12T19:33:33.423Z,95228.00
2018-08-12T19:36:06.252Z,95222.00
2018-08-12T19:38:39.180Z,95220.00
2018-08-12T19:41:12.086Z,95224.00
2018-08-12T19:43:45.460Z,95223.00
2018-08-12T19:46:17.418Z,95220.00
2018-08-12T19:48:49.249Z,95226.00
2018-08-12T19:51:19.997Z,95223.00
2018-08-12T19:53:51.378Z,95223.00
2018-08-12T19:56:21.823Z,95222.00
2018-08-12T19:58:52.206Z,95222.00
2018-08-12T20:01:22.561Z,95222.00
2018-08-12T20:03:53.041Z,95219.00
2018-08-12T20:06:24.620Z,95220.00
2018-08-12T20:08:55.257Z,95225.00
2018-08-12T20:11:27.335Z,95219.00
2018-08-12T20:13:58.086Z,95222.00
2018-08-12T20:16:30.189Z,95225.00
2018-08-12T20:19:01.074Z,95221.00
2018-08-12T20:21:31.676Z,95221.00
2018-08-12T20:24:03.467Z,95216.00
2018-08-12T20:26:34.517Z,95225.00
2018-08-12T20:29:05.445Z,95220.00
2018-08-12T20:31:36.443Z,95208.00
2018-08-12T20:34:07.169Z,95220.00
2018-08-12T20:36:38.390Z,95216.00
2018-08-12T20:39:11.707Z,95219.00
2018-08-12T20:41:42.761Z,95211.00
2018-08-12T20:44:13.737Z,95207.00
2018-08-12T20:46:44.251Z,95206.00
2018-08-12T20:49:14.915Z,95210.00
2018-08-12T20:51:45.125Z,95207.00
2018-08-12T20:54:15.364Z,95209.00
2018-08-12T20:56:45.858Z,95203.00
2018-08-12T20:59:17.696Z,95204.00
2018-08-12T21:01:49.247Z,95202.00
2018-08-12T21:04:25.562Z,95200.00
2018-08-12T21:06:57.149Z,95204.00
2018-08-12T21:09:27.791Z,95208.00
2018-08-12T21:11:58.529Z,95204.00
2018-08-12T21:14:28.878Z,95199.00
2018-08-12T21:16:59.712Z,95197.00
2018-08-12T21:19:30.630Z,95195.00
2018-08-12T21:22:02.353Z,95199.00
2018-08-12T21:24:32.635Z,95194.00
2018-08-12T21:27:02.908Z,95194.00
2018-08-12T21:29:33.315Z,95187.00
2018-08-12T21:32:04.624Z,95190.00
2018-08-12T21:34:34.942Z,95186.00
2018-08-12T21:37:05.330Z,95186.00
2018-08-12T21:39:35.675Z,95181.00
2018-08-12T21:42:05.917Z,95181.00
2018-08-12T21:44:36.263Z,95182.00
2018-08-12T21:47:07.090Z,95183.00
2018-08-12T21:49:37.457Z,95180.00
2018-08-12T21:52:07.797Z,95177.00
2018-08-12T21:54:38.153Z,95180.00
2018-08-12T21:57:09.494Z,95177.00
2018-08-12T21:59:40.158Z,95181.00
2018-08-12T22:02:10.480Z,95179.00
2018-08-12T22:04:40.734Z,95173.00
2018-08-12T22:07:11.093Z,95170.00
2018-08-12T22:09:41.928Z,95169.00
2018-08-12T22:12:12.216Z,95164.00
2018-08-12T22:14:43.479Z,95162.00
2018-08-12T22:17:13.820Z,95163.00
2018-08-12T22:19:44.094Z,95161.00
2018-08-12T22:22:14.684Z,95163.00
2018-08-12T22:24:44.915Z,95160.00
2018-08-12T22:27:15.221Z,95161.00
2018-08-12T22:29:45.319Z,95160.00
2018-08-12T22:32:15.960Z,95162.00
2018-08-12T22:34:46.294Z,95160.00
2018-08-12T22:37:16.600Z,95156.00
2018-08-12T22:39:46.820Z,95162.00
2018-08-12T22:42:17.281Z,95163.00
2018-08-12T22:44:47.484Z,95156.00
2018-08-12T22:47:17.838Z,95160.00
2018-08-12T22:49:48.469Z,95159.00
2018-08-12T22:52:18.677Z,95158.00
2018-08-12T22:54:49.013Z,95153.00
2018-08-12T22:57:19.310Z,95155.00
2018-08-12T22:59:49.851Z,95154.00
2018-08-12T23:02:20.156Z,95153.00
2018-08-12T23:04:50.427Z,95155.00
2018-08-12T23:07:20.902Z,95157.00
2018-08-12T23:09:51.197Z,95153.00
2018-08-12T23:12:22.649Z,95150.00
2018-08-12T23:14:53.239Z,95147.00
2018-08-12T23:17:23.534Z,95152.00
2018-08-12T23:19:53.960Z,95151.00
2018-08-12T23:25:20.968Z,95150.00
2018-08-12T23:27:54.080Z,95149.00
2018-08-12T23:30:24.140Z,95144.00
2018-08-12T23:32:54.499Z,95142.00
2018-08-12T23:35:25.125Z,95136.00
2018-08-12T23:37:55.710Z,95139.00
2018-08-12T23:40:29.216Z,95133.00
2018-08-12T23:42:59.517Z,95129.00
2018-08-12T23:45:32.696Z,95129.00
2018-08-12T23:48:04.361Z,95128.00
2018-08-12T23:50:35.052Z,95119.00
2018-08-12T23:53:06.281Z,95119.00
2018-08-12T23:55:40.423Z,95121.00
2018-08-12T23:58:12.880Z,95118.00
